Time;durP1;ratioP1;P1;durP2;ratioP2;P2;SDS_P1;SDS_P2;PMS_P1;PMS_P2;Temp;Humidity;BMP_temperature;BMP_pressure;BME280_temperature;BME280_humidity;BME280_pressure;Samples;Min_cycle;Max_cycle;Signal;HPM_P1;HPM_P2
2021/08/01 00:01:26;;;;;;;5.10;4.53;;;16.00;99.90;;;;;;3589994;40;20736;-77
2021/08/01 00:03:53;;;;;;;3.95;3.65;;;16.00;99.90;;;;;;3590580;40;20488;-78
2021/08/01 00:06:22;;;;;;;4.88;4.38;;;16.00;99.90;;;;;;3589720;40;20259;-77
2021/08/01 00:08:49;;;;;;;4.65;4.18;;;15.80;99.90;;;;;;3588797;40;20305;-77
2021/08/01 00:11:17;;;;;;;5.35;4.60;;;15.90;99.90;;;;;;3595997;40;20256;-77
2021/08/01 00:13:44;;;;;;;6.00;4.57;;;15.90;99.90;;;;;;3600140;40;20537;-81
2021/08/01 00:16:11;;;;;;;6.95;4.55;;;15.90;99.90;;;;;;3600391;40;20219;-77
2021/08/01 00:18:39;;;;;;;5.40;4.95;;;16.10;99.90;;;;;;3600180;40;20514;-77
2021/08/01 00:21:06;;;;;;;5.40;4.38;;;16.00;99.90;;;;;;3587788;40;20638;-77
2021/08/01 00:23:34;;;;;;;5.57;5.07;;;16.00;99.90;;;;;;3584926;40;20239;-77
2021/08/01 00:26:01;;;;;;;6.05;5.10;;;15.90;99.90;;;;;;3582663;40;20244;-77
2021/08/01 00:28:28;;;;;;;5.60;4.57;;;15.90;99.90;;;;;;3570879;40;20507;-77
2021/08/01 00:30:58;;;;;;;4.93;4.53;;;15.90;99.90;;;;;;3579916;40;20239;-76
2021/08/01 00:33:25;;;;;;;8.00;5.10;;;15.90;99.90;;;;;;3570798;40;20270;-76
2021/08/01 00:35:52;;;;;;;4.38;3.97;;;16.00;99.90;;;;;;3571547;40;20251;-77
2021/08/01 00:38:19;;;;;;;4.38;3.97;;;16.00;99.90;;;;;;3580986;40;20310;-76
2021/08/01 00:40:47;;;;;;;4.95;4.50;;;16.00;99.90;;;;;;3570982;40;20243;-77
2021/08/01 00:43:15;;;;;;;4.45;4.05;;;15.90;99.90;;;;;;3576283;40;20301;-76
2021/08/01 00:45:47;;;;;;;5.63;4.82;;;15.90;99.90;;;;;;3578861;40;20275;-77
2021/08/01 00:48:14;;;;;;;4.55;4.15;;;15.90;99.90;;;;;;3586322;40;20271;-76
2021/08/01 00:50:44;;;;;;;5.32;4.82;;;15.80;99.90;;;;;;3584273;40;20228;-77
2021/08/01 00:53:13;;;;;;;4.93;4.53;;;15.80;99.90;;;;;;3575939;40;20242;-76
2021/08/01 00:55:41;;;;;;;5.05;4.57;;;15.90;99.90;;;;;;3575906;40;20250;-77
2021/08/01 00:58:09;;;;;;;5.00;4.60;;;15.90;99.90;;;;;;3583507;40;20323;-77
2021/08/01 01:00:58;;;;;;;7.97;5.20;;;15.80;99.90;;;;;;3574337;40;20252;-76
2021/08/01 01:03:30;;;;;;;5.80;4.57;;;15.90;99.90;;;;;;3575164;40;20636;-77
2021/08/01 01:06:01;;;;;;;6.00;4.68;;;15.90;99.90;;;;;;3584497;40;20273;-77
2021/08/01 01:08:34;;;;;;;6.97;4.10;;;15.80;99.90;;;;;;3563689;40;20306;-76
2021/08/01 01:11:15;;;;;;;6.65;4.55;;;15.80;99.90;;;;;;3572198;40;20259;-76
2021/08/01 01:13:50;;;;;;;5.35;4.88;;;15.90;99.90;;;;;;3571703;40;20250;-77
2021/08/01 01:16:18;;;;;;;5.22;4.43;;;15.80;99.90;;;;;;3563703;40;20215;-77
2021/08/01 01:18:49;;;;;;;5.20;4.80;;;15.70;99.90;;;;;;3572280;40;20216;-77
2021/08/01 01:21:44;;;;;;;5.82;5.28;;;15.80;99.90;;;;;;3580673;40;20244;-76
2021/08/01 01:24:15;;;;;;;5.78;4.78;;;15.70;99.90;;;;;;3571816;40;20257;-77
2021/08/01 01:27:12;;;;;;;6.25;5.13;;;15.70;99.90;;;;;;3580559;40;20265;-77
2021/08/01 01:29:46;;;;;;;5.28;4.78;;;15.70;99.90;;;;;;3580440;40;20271;-77
2021/08/01 01:32:20;;;;;;;6.55;5.20;;;15.80;99.90;;;;;;3572284;40;20592;-77
2021/08/01 01:34:55;;;;;;;4.80;4.35;;;15.70;99.90;;;;;;3580354;40;20258;-77
2021/08/01 01:37:25;;;;;;;4.65;4.25;;;15.70;99.90;;;;;;3579961;40;20239;-76
2021/08/01 01:39:54;;;;;;;6.43;4.03;;;15.70;99.90;;;;;;3580123;40;20512;-78
2021/08/01 01:42:55;;;;;;;6.07;4.45;;;15.60;99.90;;;;;;3563462;40;20681;-78
2021/08/01 01:45:28;;;;;;;4.80;4.40;;;15.60;99.90;;;;;;3563197;40;20246;-76
2021/08/01 01:47:56;;;;;;;5.22;4.72;;;15.60;99.90;;;;;;3571559;40;20244;-77
2021/08/01 01:50:24;;;;;;;4.43;4.03;;;15.60;99.90;;;;;;3580387;40;20324;-76
2021/08/01 01:52:56;;;;;;;4.45;3.75;;;15.70;99.90;;;;;;3571573;40;20655;-76
2021/08/01 01:55:27;;;;;;;7.00;4.72;;;15.70;99.90;;;;;;3580140;40;20246;-76
2021/08/01 01:57:56;;;;;;;5.70;4.55;;;15.70;99.90;;;;;;3580795;40;20247;-77
2021/08/01 02:00:25;;;;;;;5.85;4.28;;;15.70;99.90;;;;;;3580471;40;20276;-76
2021/08/01 02:03:03;;;;;;;4.75;4.35;;;15.70;99.90;;;;;;3572663;40;20478;-77
2021/08/01 02:05:50;;;;;;;4.50;4.10;;;15.70;99.90;;;;;;3572276;40;20248;-77
2021/08/01 02:08:48;;;;;;;5.18;4.68;;;15.60;99.90;;;;;;3579891;40;20284;-76
2021/08/01 02:11:57;;;;;;;4.68;4.25;;;15.60;99.90;;;;;;3558876;40;20263;-77
2021/08/01 02:14:45;;;;;;;4.57;4.18;;;15.50;99.90;;;;;;3563184;40;20621;-77
2021/08/01 02:17:16;;;;;;;5.22;4.60;;;15.50;99.90;;;;;;3580730;40;20250;-76
2021/08/01 02:19:45;;;;;;;4.85;4.32;;;15.60;99.90;;;;;;3564181;40;20294;-76
2021/08/01 02:22:16;;;;;;;7.63;4.68;;;15.60;99.90;;;;;;3571673;40;20290;-77
2021/08/01 02:24:47;;;;;;;5.05;4.57;;;15.50;99.90;;;;;;3580673;40;20236;-76
2021/08/01 02:27:17;;;;;;;4.85;4.47;;;15.60;99.90;;;;;;3571916;40;20255;-77
2021/08/01 02:29:44;;;;;;;6.43;4.57;;;15.70;99.90;;;;;;3571471;40;20231;-80
2021/08/01 02:32:12;;;;;;;4.60;4.22;;;15.70;99.90;;;;;;3579898;40;20251;-76
2021/08/01 02:34:40;;;;;;;8.07;5.30;;;15.60;99.90;;;;;;3570838;40;20297;-76
2021/08/01 02:37:11;;;;;;;5.15;4.70;;;15.50;99.90;;;;;;3580335;40;20244;-77
2021/08/01 02:39:39;;;;;;;4.85;4.40;;;15.40;99.90;;;;;;3586765;40;20607;-77
2021/08/01 02:42:10;;;;;;;5.18;4.68;;;15.30;99.90;;;;;;3590443;40;20544;-77
2021/08/01 02:44:38;;;;;;;4.93;4.60;;;15.30;99.90;;;;;;3584726;40;20253;-77
2021/08/01 02:47:09;;;;;;;5.28;4.78;;;15.40;99.90;;;;;;3591025;40;20219;-77
2021/08/01 02:49:43;;;;;;;6.72;5.07;;;15.40;99.90;;;;;;3590234;40;20262;-80
2021/08/01 02:52:12;;;;;;;7.25;5.95;;;15.30;99.90;;;;;;3581160;40;20235;-77
2021/08/01 02:54:42;;;;;;;6.18;5.57;;;15.20;99.90;;;;;;3580771;40;20607;-77
2021/08/01 02:57:13;;;;;;;6.00;5.60;;;15.30;99.90;;;;;;3581219;40;20242;-77
2021/08/01 02:59:42;;;;;;;6.55;5.82;;;15.30;99.90;;;;;;3589950;40;20243;-77
2021/08/01 03:02:11;;;;;;;5.45;5.05;;;15.40;99.90;;;;;;3581094;40;20245;-77
2021/08/01 03:04:48;;;;;;;6.43;5.75;;;15.40;99.90;;;;;;3572870;40;20293;-77
2021/08/01 03:07:17;;;;;;;6.70;6.20;;;15.40;99.90;;;;;;3589394;40;20242;-76
2021/08/01 03:09:45;;;;;;;6.68;6.00;;;15.60;99.90;;;;;;3581442;40;20249;-76
2021/08/01 03:12:15;;;;;;;7.35;6.75;;;15.60;99.90;;;;;;3590912;40;20297;-79
2021/08/01 03:14:44;;;;;;;7.25;6.65;;;15.60;99.90;;;;;;3573472;40;20251;-76
2021/08/01 03:17:11;;;;;;;7.38;6.68;;;15.50;99.90;;;;;;3573105;40;20239;-76
2021/08/01 03:19:39;;;;;;;13.38;6.28;;;15.50;99.90;;;;;;3590164;40;20245;-78
2021/08/01 03:22:08;;;;;;;7.95;6.90;;;15.30;99.90;;;;;;3580976;40;20343;-76
2021/08/01 03:24:40;;;;;;;6.53;5.68;;;15.30;99.90;;;;;;3590161;40;20554;-76
2021/08/01 03:27:14;;;;;;;6.90;6.30;;;14.90;99.90;;;;;;3581038;40;20587;-77
2021/08/01 03:29:43;;;;;;;6.75;6.07;;;14.90;99.90;;;;;;3581370;40;20230;-78
2021/08/01 03:32:16;;;;;;;11.43;7.15;;;14.90;99.90;;;;;;3581249;40;20258;-77
2021/08/01 03:34:44;;;;;;;8.48;7.65;;;15.00;99.90;;;;;;3590367;40;20533;-76
2021/08/01 03:37:12;;;;;;;8.27;7.57;;;15.10;99.90;;;;;;3589616;40;20243;-77
2021/08/01 03:39:58;;;;;;;9.18;7.72;;;15.10;99.90;;;;;;3581739;40;20257;-76
2021/08/01 03:42:26;;;;;;;9.38;8.27;;;14.90;99.90;;;;;;3590189;40;20262;-77
2021/08/01 03:44:53;;;;;;;8.02;7.35;;;14.90;99.90;;;;;;3589595;40;20457;-77
2021/08/01 03:47:21;;;;;;;9.27;8.38;;;14.80;99.90;;;;;;3585678;40;20250;-78
2021/08/01 03:49:48;;;;;;;8.73;7.90;;;14.90;99.90;;;;;;3590509;40;20227;-77
2021/08/01 03:52:15;;;;;;;8.55;7.80;;;14.80;99.90;;;;;;3590835;40;20300;-77
2021/08/01 03:54:42;;;;;;;9.98;9.10;;;15.00;99.90;;;;;;3583724;40;20207;-76
2021/08/01 03:57:12;;;;;;;10.57;9.63;;;14.90;99.90;;;;;;3591553;40;20242;-79
2021/08/01 03:59:40;;;;;;;8.63;7.75;;;15.10;99.90;;;;;;3581777;40;20246;-77
2021/08/01 04:02:07;;;;;;;9.85;9.02;;;15.00;99.90;;;;;;3590611;40;20249;-77
2021/08/01 04:04:34;;;;;;;10.30;9.32;;;14.90;99.90;;;;;;3590236;40;20500;-76
2021/08/01 04:07:01;;;;;;;11.93;10.30;;;14.90;99.90;;;;;;3590108;40;20234;-77
2021/08/01 04:09:30;;;;;;;10.70;9.70;;;15.10;99.90;;;;;;3581872;40;20219;-77
2021/08/01 04:11:57;;;;;;;9.73;8.85;;;15.00;99.90;;;;;;3581315;40;20635;-76
2021/08/01 04:14:25;;;;;;;9.40;8.60;;;15.00;99.90;;;;;;3590620;40;20562;-77
2021/08/01 04:16:54;;;;;;;11.75;10.50;;;15.00;99.90;;;;;;3590429;40;20610;-77
2021/08/01 04:19:20;;;;;;;12.63;10.57;;;15.20;99.90;;;;;;3590439;40;20243;-76
2021/08/01 04:21:47;;;;;;;11.13;10.02;;;15.30;99.90;;;;;;3590197;40;20258;-77
2021/08/01 04:24:14;;;;;;;13.10;10.88;;;15.30;99.90;;;;;;3589622;40;20220;-77
2021/08/01 04:26:42;;;;;;;10.10;9.10;;;15.20;99.90;;;;;;3590125;40;20239;-76
2021/08/01 04:29:09;;;;;;;10.38;9.38;;;15.10;99.90;;;;;;3590034;40;20247;-77
2021/08/01 04:31:36;;;;;;;10.18;9.10;;;15.10;99.90;;;;;;3590008;40;20373;-78
2021/08/01 04:34:04;;;;;;;10.20;9.15;;;15.00;99.90;;;;;;3590175;40;20523;-77
2021/08/01 04:36:31;;;;;;;9.68;8.73;;;15.10;99.90;;;;;;3590061;40;20223;-77
2021/08/01 04:38:58;;;;;;;11.88;9.05;;;15.20;99.90;;;;;;3590155;40;20246;-77
2021/08/01 04:41:25;;;;;;;10.73;9.10;;;15.50;99.90;;;;;;3590380;40;20293;-76
2021/08/01 04:43:52;;;;;;;9.93;9.05;;;15.40;99.90;;;;;;3590827;40;20243;-77
2021/08/01 04:46:19;;;;;;;9.45;8.48;;;15.50;99.90;;;;;;3590809;40;20696;-76
2021/08/01 04:48:46;;;;;;;10.70;9.10;;;15.70;99.90;;;;;;3590299;40;20223;-78
2021/08/01 04:51:14;;;;;;;10.68;9.57;;;15.90;99.90;;;;;;3590125;40;20239;-77
2021/08/01 04:53:41;;;;;;;10.07;9.35;;;15.90;99.90;;;;;;3589717;40;20234;-77
2021/08/01 04:56:09;;;;;;;11.25;10.20;;;16.00;99.90;;;;;;3589456;40;20251;-77
2021/08/01 04:58:36;;;;;;;12.95;10.27;;;16.10;99.90;;;;;;3589343;40;20232;-77
2021/08/01 05:01:10;;;;;;;12.90;10.07;;;16.10;99.90;;;;;;3589691;40;20238;-78
2021/08/01 05:03:37;;;;;;;10.27;9.38;;;16.10;99.90;;;;;;3580936;40;20321;-77
2021/08/01 05:06:04;;;;;;;10.70;9.38;;;16.00;99.90;;;;;;3589581;40;20215;-81
2021/08/01 05:08:32;;;;;;;12.02;10.98;;;16.10;99.90;;;;;;3581098;40;20243;-78
2021/08/01 05:10:59;;;;;;;10.82;9.63;;;16.20;99.90;;;;;;3590422;40;20277;-77
2021/08/01 05:13:26;;;;;;;12.40;11.30;;;16.30;99.90;;;;;;3589986;40;20692;-78
2021/08/01 05:15:53;;;;;;;11.02;9.93;;;16.40;99.90;;;;;;3590117;40;20250;-77
2021/08/01 05:18:21;;;;;;;11.95;10.77;;;16.40;99.90;;;;;;3589831;40;20293;-77
2021/08/01 05:20:49;;;;;;;11.98;10.90;;;16.50;99.90;;;;;;3580933;40;20235;-77
2021/08/01 05:23:16;;;;;;;12.13;11.15;;;16.50;99.90;;;;;;3589594;40;20239;-77
2021/08/01 05:25:44;;;;;;;11.10;10.02;;;16.60;99.90;;;;;;3589360;40;20235;-77
2021/08/01 05:28:11;;;;;;;11.35;10.25;;;16.70;99.90;;;;;;3589320;40;20250;-81
2021/08/01 05:30:38;;;;;;;11.30;10.20;;;16.70;99.90;;;;;;3589255;40;20645;-77
2021/08/01 05:33:06;;;;;;;12.30;10.43;;;16.80;99.90;;;;;;3580501;40;20257;-77
2021/08/01 05:35:35;;;;;;;11.20;9.73;;;16.80;99.90;;;;;;3580905;40;20247;-78
2021/08/01 05:38:02;;;;;;;10.60;9.60;;;16.80;99.90;;;;;;3589199;40;20251;-77
2021/08/01 05:40:30;;;;;;;10.75;9.48;;;16.90;99.90;;;;;;3589584;40;20246;-77
2021/08/01 05:42:59;;;;;;;11.10;9.77;;;16.80;99.90;;;;;;3589430;40;20268;-78
2021/08/01 05:45:26;;;;;;;11.98;10.02;;;16.80;99.90;;;;;;3590316;40;20243;-77
2021/08/01 05:47:53;;;;;;;11.73;10.38;;;16.90;99.90;;;;;;3590188;40;20235;-77
2021/08/01 05:50:20;;;;;;;12.30;11.00;;;16.90;99.90;;;;;;3589745;40;20271;-77
2021/08/01 05:52:47;;;;;;;10.07;8.95;;;17.00;99.90;;;;;;3592097;40;20231;-77
2021/08/01 05:55:14;;;;;;;10.40;9.40;;;17.00;99.90;;;;;;3591098;40;20701;-77
2021/08/01 05:57:41;;;;;;;9.95;9.15;;;17.00;99.90;;;;;;3591434;40;20215;-78
2021/08/01 06:00:11;;;;;;;11.18;8.98;;;17.00;99.90;;;;;;3591216;40;20239;-76
2021/08/01 06:02:38;;;;;;;10.52;9.63;;;17.00;99.90;;;;;;3590914;40;20250;-77
2021/08/01 06:05:06;;;;;;;11.75;10.65;;;16.90;99.90;;;;;;3582390;40;20262;-77
2021/08/01 06:07:33;;;;;;;10.93;9.82;;;16.90;99.90;;;;;;3582672;40;20260;-77
2021/08/01 06:10:00;;;;;;;10.15;9.25;;;17.00;99.90;;;;;;3591374;40;20241;-76
2021/08/01 06:12:27;;;;;;;9.60;8.63;;;17.20;99.90;;;;;;3591511;40;20266;-77
2021/08/01 06:14:55;;;;;;;9.43;8.63;;;17.30;99.90;;;;;;3591788;40;20661;-77
2021/08/01 06:17:23;;;;;;;10.35;8.75;;;17.20;99.90;;;;;;3591679;40;20243;-77
2021/08/01 06:19:54;;;;;;;9.32;8.52;;;17.30;99.90;;;;;;3591242;40;20289;-79
2021/08/01 06:22:23;;;;;;;10.43;9.27;;;17.30;99.90;;;;;;3591429;40;20542;-77
2021/08/01 06:24:50;;;;;;;9.80;8.82;;;17.40;99.90;;;;;;3582781;40;20242;-76
2021/08/01 06:27:17;;;;;;;8.43;7.63;;;17.30;99.90;;;;;;3591405;40;20247;-77
2021/08/01 06:29:44;;;;;;;8.52;7.78;;;17.40;99.90;;;;;;3592063;40;20764;-77
2021/08/01 06:32:14;;;;;;;8.93;8.13;;;17.70;99.90;;;;;;3591712;40;20251;-75
2021/08/01 06:34:42;;;;;;;8.07;7.28;;;17.80;99.90;;;;;;3586272;40;20226;-75
2021/08/01 06:37:09;;;;;;;7.30;6.72;;;17.80;99.90;;;;;;3586199;40;20627;-76
2021/08/01 06:39:36;;;;;;;7.97;7.28;;;17.80;99.90;;;;;;3586384;40;20599;-76
2021/08/01 06:42:04;;;;;;;8.70;7.82;;;17.90;99.90;;;;;;3586312;40;20235;-76
2021/08/01 06:44:30;;;;;;;9.32;8.45;;;17.90;99.90;;;;;;3586044;40;20243;-76
2021/08/01 06:46:57;;;;;;;8.50;7.30;;;17.90;99.90;;;;;;3585843;40;20293;-76
2021/08/01 06:49:24;;;;;;;8.77;7.93;;;17.90;99.90;;;;;;3586150;40;20483;-76
2021/08/01 06:51:53;;;;;;;7.75;6.95;;;17.80;99.90;;;;;;3585292;40;20254;-76
2021/08/01 06:54:20;;;;;;;8.48;7.60;;;17.80;99.90;;;;;;3585122;40;20242;-75
2021/08/01 06:56:46;;;;;;;9.25;8.35;;;17.80;99.90;;;;;;3575728;40;20242;-76
2021/08/01 06:59:13;;;;;;;9.93;8.30;;;17.70;99.90;;;;;;3585159;40;20239;-75
2021/08/01 07:01:40;;;;;;;8.38;7.57;;;17.90;99.90;;;;;;3586549;40;20333;-81
2021/08/01 07:04:07;;;;;;;8.48;7.43;;;18.40;99.90;;;;;;3586588;40;20219;-76
2021/08/01 07:06:34;;;;;;;9.15;8.35;;;18.30;99.90;;;;;;3586190;40;20235;-76
2021/08/01 07:09:03;;;;;;;8.73;7.85;;;18.10;99.90;;;;;;3585254;40;20603;-77
2021/08/01 07:11:36;;;;;;;8.13;7.43;;;18.00;99.90;;;;;;3585787;40;20250;-77
2021/08/01 07:14:03;;;;;;;9.20;8.40;;;18.30;99.90;;;;;;3585996;40;20303;-76
2021/08/01 07:16:30;;;;;;;8.10;7.30;;;18.50;99.90;;;;;;3575925;40;20525;-77
2021/08/01 07:18:57;;;;;;;7.85;7.05;;;18.70;99.90;;;;;;3585397;40;20290;-76
2021/08/01 07:21:24;;;;;;;9.85;7.53;;;18.80;99.90;;;;;;3593111;40;20247;-76
2021/08/01 07:23:51;;;;;;;8.55;7.60;;;19.00;99.90;;;;;;3585813;40;20235;-76
2021/08/01 07:26:20;;;;;;;8.10;7.38;;;19.00;99.90;;;;;;3585516;40;20234;-76
2021/08/01 07:28:47;;;;;;;13.95;7.20;;;19.00;99.90;;;;;;3585050;40;20255;-76
2021/08/01 07:31:14;;;;;;;7.65;6.22;;;19.00;99.90;;;;;;3585477;40;20235;-77
2021/08/01 07:33:40;;;;;;;7.07;6.22;;;19.20;99.90;;;;;;3586350;40;20239;-76
2021/08/01 07:36:08;;;;;;;7.63;6.88;;;19.20;99.90;;;;;;3585472;40;20239;-76
2021/08/01 07:38:35;;;;;;;8.18;6.60;;;19.30;99.90;;;;;;3585749;40;20274;-76
2021/08/01 07:41:02;;;;;;;7.97;6.82;;;19.30;99.90;;;;;;3585703;40;20250;-76
2021/08/01 07:43:30;;;;;;;9.35;6.25;;;19.50;99.90;;;;;;3584982;40;20227;-76
2021/08/01 07:45:57;;;;;;;7.53;6.35;;;19.50;99.90;;;;;;3584563;40;20250;-76
2021/08/01 07:48:24;;;;;;;7.05;6.25;;;19.70;99.90;;;;;;3585412;40;20266;-76
2021/08/01 07:50:51;;;;;;;7.10;6.43;;;19.70;99.90;;;;;;3585444;40;20243;-76
2021/08/01 07:53:18;;;;;;;6.47;5.85;;;19.40;99.90;;;;;;3581417;40;20524;-76
2021/08/01 07:55:45;;;;;;;5.57;5.13;;;19.50;99.90;;;;;;3576289;40;20266;-76
2021/08/01 07:58:12;;;;;;;11.45;7.05;;;19.70;99.90;;;;;;3566628;40;20247;-76
2021/08/01 08:00:40;;;;;;;7.28;5.93;;;19.70;99.90;;;;;;3579677;40;20617;-76
2021/08/01 08:03:07;;;;;;;6.13;5.63;;;19.90;99.90;;;;;;3566797;40;20533;-76
2021/08/01 08:05:34;;;;;;;7.13;5.97;;;19.80;99.90;;;;;;3575619;40;20244;-76
2021/08/01 08:08:01;;;;;;;6.75;6.05;;;19.80;99.90;;;;;;3566316;40;20247;-78
2021/08/01 08:10:28;;;;;;;5.85;5.28;;;20.10;99.90;;;;;;3575597;40;20305;-76
2021/08/01 08:12:55;;;;;;;4.85;4.45;;;19.90;99.90;;;;;;3575570;40;20247;-77
2021/08/01 08:15:22;;;;;;;5.22;4.82;;;19.80;99.90;;;;;;3566275;40;20248;-77
2021/08/01 08:17:51;;;;;;;6.90;4.32;;;20.00;99.90;;;;;;3575838;40;20224;-76
2021/08/01 08:20:18;;;;;;;6.32;5.50;;;20.10;99.90;;;;;;3566461;40;20224;-76
2021/08/01 08:22:45;;;;;;;8.20;5.47;;;20.30;99.90;;;;;;3567054;40;20493;-76
2021/08/01 08:25:12;;;;;;;7.57;5.43;;;20.40;99.90;;;;;;3566756;40;20526;-76
2021/08/01 08:27:39;;;;;;;5.53;5.03;;;20.40;99.90;;;;;;3576073;40;20597;-76
2021/08/01 08:30:08;;;;;;;4.30;3.92;;;20.30;99.90;;;;;;3575747;40;20294;-76
2021/08/01 08:32:35;;;;;;;5.38;4.70;;;20.20;99.90;;;;;;3575285;40;20255;-76
2021/08/01 08:35:05;;;;;;;5.50;4.25;;;20.20;99.90;;;;;;3575704;40;20260;-76
2021/08/01 08:37:32;;;;;;;6.00;4.63;;;20.40;99.90;;;;;;3566188;40;20553;-77
2021/08/01 08:39:59;;;;;;;3.78;3.47;;;20.70;99.90;;;;;;3575809;40;20235;-76
2021/08/01 08:42:27;;;;;;;3.20;2.85;;;20.90;99.90;;;;;;3575535;40;20239;-76
2021/08/01 08:44:54;;;;;;;3.97;3.58;;;20.70;99.90;;;;;;3575992;40;20249;-75
2021/08/01 08:47:26;;;;;;;4.63;2.97;;;20.50;99.90;;;;;;3585806;40;20612;-76
2021/08/01 08:49:57;;;;;;;3.17;2.88;;;20.60;99.90;;;;;;3586419;40;20254;-76
2021/08/01 08:52:28;;;;;;;3.17;2.97;;;20.70;99.90;;;;;;3576391;40;20520;-76
2021/08/01 08:55:00;;;;;;;4.43;3.47;;;20.70;99.90;;;;;;3585853;40;20234;-76
2021/08/01 08:57:34;;;;;;;3.30;3.00;;;20.70;99.90;;;;;;3576114;40;20257;-77
2021/08/01 09:00:06;;;;;;;4.80;3.75;;;20.70;99.90;;;;;;3585350;40;20233;-76
2021/08/01 09:02:34;;;;;;;3.35;2.90;;;20.70;99.90;;;;;;3588783;40;20227;-77
2021/08/01 09:05:03;;;;;;;3.15;2.95;;;20.60;99.90;;;;;;3581500;40;20599;-76
2021/08/01 09:07:33;;;;;;;4.10;3.17;;;20.70;99.90;;;;;;3576349;40;20665;-77
2021/08/01 09:10:00;;;;;;;3.10;2.90;;;20.90;99.90;;;;;;3568526;40;20240;-77
2021/08/01 09:12:30;;;;;;;3.45;3.10;;;21.00;99.90;;;;;;3574798;40;20278;-77
2021/08/01 09:15:15;;;;;;;6.78;4.15;;;21.10;99.90;;;;;;3574895;40;20250;-78
2021/08/01 09:17:44;;;;;;;5.15;3.90;;;20.80;99.90;;;;;;3567392;40;20489;-78
2021/08/01 09:20:18;;;;;;;4.85;3.83;;;20.60;99.90;;;;;;3567897;40;20239;-76
2021/08/01 09:23:10;;;;;;;4.25;3.92;;;20.50;99.90;;;;;;3568053;40;20239;-78
2021/08/01 09:25:39;;;;;;;4.35;3.75;;;20.60;99.90;;;;;;3568455;40;20584;-77
2021/08/01 09:28:12;;;;;;;3.78;3.58;;;20.70;99.90;;;;;;3568061;40;20248;-78
2021/08/01 09:30:50;;;;;;;4.35;3.95;;;21.00;99.90;;;;;;3577560;40;20271;-78
2021/08/01 09:33:32;;;;;;;3.70;3.40;;;21.00;99.90;;;;;;3578346;40;20239;-77
2021/08/01 09:36:07;;;;;;;3.85;3.53;;;21.00;99.90;;;;;;3577535;40;20227;-77
2021/08/01 09:38:49;;;;;;;3.83;3.53;;;21.50;99.90;;;;;;3577639;40;20243;-78
2021/08/01 09:41:23;;;;;;;6.82;3.25;;;21.50;99.90;;;;;;3567610;40;20283;-77
2021/08/01 09:43:55;;;;;;;5.32;4.03;;;21.60;99.90;;;;;;3575768;40;20235;-78
2021/08/01 09:46:28;;;;;;;6.63;3.60;;;21.60;99.90;;;;;;3575434;40;20325;-78
2021/08/01 09:49:10;;;;;;;4.75;3.05;;;21.30;99.90;;;;;;3558428;40;20521;-78
2021/08/01 09:51:40;;;;;;;3.63;3.33;;;21.20;99.90;;;;;;3575923;40;20231;-77
2021/08/01 09:54:11;;;;;;;4.45;4.05;;;21.60;99.90;;;;;;3574787;40;20333;-78
2021/08/01 09:56:52;;;;;;;4.72;3.80;;;21.70;99.90;;;;;;3566509;40;20251;-78
2021/08/01 09:59:20;;;;;;;6.35;3.80;;;21.90;99.90;;;;;;3575924;40;20247;-78
2021/08/01 10:01:58;;;;;;;5.97;3.70;;;22.10;99.90;;;;;;3568336;40;20510;-77
2021/08/01 10:04:27;;;;;;;4.53;4.18;;;22.00;99.90;;;;;;3577900;40;20263;-78
2021/08/01 10:07:05;;;;;;;4.15;3.10;;;22.20;99.90;;;;;;3576492;40;20240;-76
2021/08/01 10:09:35;;;;;;;3.47;3.22;;;22.10;99.90;;;;;;3576487;40;20244;-77
2021/08/01 10:12:02;;;;;;;3.80;3.20;;;22.30;99.90;;;;;;3577229;40;20251;-76
2021/08/01 10:14:31;;;;;;;3.22;3.03;;;22.30;99.90;;;;;;3567518;40;20244;-77
2021/08/01 10:16:59;;;;;;;4.05;3.75;;;22.50;99.90;;;;;;3576295;40;20330;-77
2021/08/01 10:19:27;;;;;;;3.25;2.95;;;22.40;99.90;;;;;;3568746;40;20231;-77
2021/08/01 10:21:59;;;;;;;3.00;2.47;;;22.30;99.90;;;;;;3570235;40;20317;-76
2021/08/01 10:24:29;;;;;;;2.78;2.58;;;22.40;99.90;;;;;;3571221;40;20642;-76
2021/08/01 10:27:04;;;;;;;3.35;2.75;;;22.40;99.90;;;;;;3581957;40;20232;-78
2021/08/01 10:29:37;;;;;;;5.70;3.05;;;22.30;99.90;;;;;;3582127;40;20278;-75
2021/08/01 10:32:08;;;;;;;4.05;2.17;;;22.40;99.90;;;;;;3583160;40;20247;-77
2021/08/01 10:34:46;;;;;;;2.72;2.50;;;22.40;99.90;;;;;;3576704;40;20255;-78
2021/08/01 10:37:20;;;;;;;2.53;2.28;;;22.40;99.90;;;;;;3576590;40;20234;-76
2021/08/01 10:39:53;;;;;;;3.78;2.22;;;22.50;99.90;;;;;;3576562;40;20622;-77
2021/08/01 10:42:25;;;;;;;2.97;2.00;;;22.40;99.90;;;;;;3574680;40;20267;-77
2021/08/01 10:44:53;;;;;;;2.47;2.10;;;22.10;99.90;;;;;;3580003;40;20249;-76
2021/08/01 10:47:23;;;;;;;3.58;2.70;;;22.40;99.90;;;;;;3586355;40;20208;-75
2021/08/01 10:49:55;;;;;;;3.13;2.50;;;22.50;99.90;;;;;;3585894;40;20247;-76
2021/08/01 10:52:30;;;;;;;3.08;2.20;;;22.60;99.90;;;;;;3588895;40;20250;-76
2021/08/01 10:54:58;;;;;;;3.65;2.55;;;22.90;99.90;;;;;;3586863;40;20296;-77
2021/08/01 10:57:28;;;;;;;3.03;2.80;;;22.90;99.90;;;;;;3586963;40;20243;-78
2021/08/01 11:00:04;;;;;;;2.72;2.13;;;23.20;99.90;;;;;;3585736;40;20498;-77
2021/08/01 11:02:36;;;;;;;2.25;1.92;;;23.50;99.90;;;;;;3587909;40;20250;-79
2021/08/01 11:05:33;;;;;;;2.22;1.95;;;23.90;99.90;;;;;;3586188;40;20243;-76
2021/08/01 11:08:07;;;;;;;3.28;2.13;;;23.60;99.90;;;;;;3577405;40;20239;-77
2021/08/01 11:10:37;;;;;;;2.28;2.17;;;23.60;99.90;;;;;;3586299;40;20258;-77
2021/08/01 11:13:54;;;;;;;3.58;2.50;;;23.60;99.90;;;;;;3584970;40;20235;-77
2021/08/01 11:16:49;;;;;;;3.28;3.08;;;23.80;99.90;;;;;;3545525;40;20253;-77
2021/08/01 11:19:33;;;;;;;5.25;2.30;;;24.20;99.90;;;;;;3568685;40;20262;-76
2021/08/01 11:22:00;;;;;;;2.38;2.17;;;24.20;99.90;;;;;;3578653;40;20309;-75
2021/08/01 11:24:27;;;;;;;2.05;1.70;;;24.50;99.90;;;;;;3569245;40;20243;-79
2021/08/01 11:27:13;;;;;;;3.22;1.90;;;24.00;99.90;;;;;;3578692;40;20239;-75
2021/08/01 11:30:03;;;;;;;2.47;2.05;;;24.10;99.90;;;;;;3579005;40;20238;-78
2021/08/01 11:32:51;;;;;;;4.35;2.75;;;24.20;99.90;;;;;;3577356;40;20235;-76
2021/08/01 11:35:19;;;;;;;1.77;1.67;;;24.20;99.90;;;;;;3576419;40;20597;-76
2021/08/01 11:37:46;;;;;;;3.15;2.42;;;23.90;99.90;;;;;;3575704;40;20522;-77
2021/08/01 11:40:13;;;;;;;2.47;2.28;;;23.40;99.90;;;;;;3576372;40;20627;-75
2021/08/01 11:42:42;;;;;;;2.63;2.42;;;23.50;99.90;;;;;;3576609;40;20243;-76
2021/08/01 11:45:13;;;;;;;2.72;2.53;;;23.40;99.90;;;;;;3576256;40;20259;-75
2021/08/01 11:47:45;;;;;;;2.38;2.17;;;23.00;99.90;;;;;;3576068;40;20512;-77
2021/08/01 11:50:14;;;;;;;2.10;1.90;;;22.80;99.90;;;;;;3580048;40;20235;-75
2021/08/01 11:52:43;;;;;;;2.83;2.60;;;22.90;99.90;;;;;;3587022;40;20246;-77
2021/08/01 11:55:13;;;;;;;1.85;1.73;;;23.00;99.90;;;;;;3579231;40;20216;-76
2021/08/01 11:57:42;;;;;;;2.35;2.15;;;22.90;99.90;;;;;;3586031;40;20246;-76
2021/08/01 12:00:10;;;;;;;1.80;1.70;;;23.00;99.90;;;;;;3582420;40;20244;-77
2021/08/01 12:02:38;;;;;;;2.15;1.95;;;23.10;99.90;;;;;;3582203;40;20618;-78
2021/08/01 12:05:08;;;;;;;2.58;1.90;;;23.00;99.90;;;;;;3580752;40;20247;-77
2021/08/01 12:07:41;;;;;;;3.13;2.10;;;22.90;99.90;;;;;;3581682;40;20309;-76
2021/08/01 12:10:17;;;;;;;4.22;2.78;;;22.70;99.90;;;;;;3580054;40;20260;-77
2021/08/01 12:12:44;;;;;;;3.80;2.28;;;22.70;99.90;;;;;;3572619;40;20243;-83
2021/08/01 12:15:11;;;;;;;3.40;3.13;;;22.60;99.90;;;;;;3575115;40;20230;-76
2021/08/01 12:17:41;;;;;;;5.13;2.95;;;22.60;99.90;;;;;;3576160;40;20732;-77
2021/08/01 12:20:09;;;;;;;1.92;1.70;;;22.60;99.90;;;;;;3577872;40;20285;-77
2021/08/01 12:22:36;;;;;;;1.85;1.70;;;22.90;99.90;;;;;;3585265;40;20576;-77
2021/08/01 12:25:07;;;;;;;3.83;2.40;;;23.30;99.90;;;;;;3584202;40;20239;-79
2021/08/01 12:27:36;;;;;;;3.00;2.65;;;23.10;99.90;;;;;;3585354;40;20224;-76
2021/08/01 12:30:10;;;;;;;2.63;2.42;;;23.10;99.90;;;;;;3586262;40;20238;-83
2021/08/01 12:32:38;;;;;;;4.22;2.60;;;23.20;99.90;;;;;;3586145;40;20481;-84
2021/08/01 12:35:08;;;;;;;3.67;2.55;;;23.20;99.90;;;;;;3587787;40;20301;-78
2021/08/01 12:37:45;;;;;;;3.28;2.95;;;23.30;99.90;;;;;;3587978;40;20276;-79
2021/08/01 12:40:15;;;;;;;4.65;2.65;;;23.70;99.90;;;;;;3585207;40;20239;-83
2021/08/01 12:42:51;;;;;;;3.20;2.90;;;24.10;99.90;;;;;;3578083;40;20243;-80
2021/08/01 12:45:18;;;;;;;2.28;2.08;;;24.10;99.90;;;;;;3585883;40;20234;-79
2021/08/01 12:47:46;;;;;;;2.38;2.17;;;24.40;99.90;;;;;;3586000;40;20228;-78
2021/08/01 12:50:14;;;;;;;3.80;2.85;;;24.50;99.90;;;;;;3577037;40;20281;-78
2021/08/01 12:52:42;;;;;;;3.15;2.47;;;25.00;99.90;;;;;;3586951;40;20269;-79
2021/08/01 12:55:10;;;;;;;2.65;2.55;;;25.20;99.90;;;;;;3586694;40;20242;-84
2021/08/01 12:58:00;;;;;;;4.93;3.70;;;24.80;99.90;;;;;;3585971;40;20200;-79
2021/08/01 13:00:30;;;;;;;4.13;3.08;;;;;;;;;;3585881;40;20254;-79
2021/08/01 13:02:59;;;;;;;3.03;2.63;;;25.10;99.90;;;;;;3587514;40;20230;-79